sensor_id;sensor_type;location;lat;lon;timestamp;P1;durP1;ratioP1;P2;durP2;ratioP2
12681;SDS011;6405;59.208;18.216;2023-04-15T00:02:00;13.80;;;5.43;;
12681;SDS011;6405;59.208;18.216;2023-04-15T00:04:26;13.67;;;4.73;;
12681;SDS011;6405;59.208;18.216;2023-04-15T00:06:52;15.63;;;4.80;;
12681;SDS011;6405;59.208;18.216;2023-04-15T00:09:19;13.67;;;4.47;;
12681;SDS011;6405;59.208;18.216;2023-04-15T00:11:45;12.53;;;4.37;;
12681;SDS011;6405;59.208;18.216;2023-04-15T00:14:11;12.83;;;4.67;;
12681;SDS011;6405;59.208;18.216;2023-04-15T00:16:37;16.10;;;5.50;;
12681;SDS011;6405;59.208;18.216;2023-04-15T00:19:03;14.07;;;5.23;;
12681;SDS011;6405;59.208;18.216;2023-04-15T00:21:29;14.70;;;4.90;;
12681;SDS011;6405;59.208;18.216;2023-04-15T00:23:55;16.00;;;5.53;;
12681;SDS011;6405;59.208;18.216;2023-04-15T00:26:21;10.37;;;4.57;;
12681;SDS011;6405;59.208;18.216;2023-04-15T00:28:47;17.70;;;5.27;;
12681;SDS011;6405;59.208;18.216;2023-04-15T00:31:12;10.53;;;4.43;;
12681;SDS011;6405;59.208;18.216;2023-04-15T00:33:39;13.63;;;5.10;;
12681;SDS011;6405;59.208;18.216;2023-04-15T00:36:05;14.63;;;5.33;;
12681;SDS011;6405;59.208;18.216;2023-04-15T00:38:31;14.13;;;4.60;;
12681;SDS011;6405;59.208;18.216;2023-04-15T00:40:57;16.00;;;4.97;;
12681;SDS011;6405;59.208;18.216;2023-04-15T00:43:23;17.30;;;5.73;;
12681;SDS011;6405;59.208;18.216;2023-04-15T00:45:50;13.17;;;4.77;;
12681;SDS011;6405;59.208;18.216;2023-04-15T00:48:18;16.00;;;5.70;;
12681;SDS011;6405;59.208;18.216;2023-04-15T00:50:45;13.10;;;5.23;;
12681;SDS011;6405;59.208;18.216;2023-04-15T00:53:10;15.40;;;4.97;;
12681;SDS011;6405;59.208;18.216;2023-04-15T00:55:36;12.37;;;5.47;;
12681;SDS011;6405;59.208;18.216;2023-04-15T00:58:02;13.53;;;5.33;;
12681;SDS011;6405;59.208;18.216;2023-04-15T01:00:28;14.30;;;4.93;;
12681;SDS011;6405;59.208;18.216;2023-04-15T01:02:54;12.40;;;5.23;;
12681;SDS011;6405;59.208;18.216;2023-04-15T01:05:20;9.10;;;4.60;;
12681;SDS011;6405;59.208;18.216;2023-04-15T01:07:46;13.80;;;4.63;;
12681;SDS011;6405;59.208;18.216;2023-04-15T01:10:12;12.43;;;4.97;;
12681;SDS011;6405;59.208;18.216;2023-04-15T01:12:38;15.43;;;4.33;;
12681;SDS011;6405;59.208;18.216;2023-04-15T01:15:04;14.97;;;5.77;;
12681;SDS011;6405;59.208;18.216;2023-04-15T01:17:30;11.73;;;5.27;;
12681;SDS011;6405;59.208;18.216;2023-04-15T01:19:56;11.07;;;4.63;;
12681;SDS011;6405;59.208;18.216;2023-04-15T01:22:23;13.50;;;5.40;;
12681;SDS011;6405;59.208;18.216;2023-04-15T01:24:54;15.30;;;4.77;;
12681;SDS011;6405;59.208;18.216;2023-04-15T01:27:40;9.93;;;4.57;;
12681;SDS011;6405;59.208;18.216;2023-04-15T01:30:09;11.53;;;5.20;;
12681;SDS011;6405;59.208;18.216;2023-04-15T01:32:35;13.27;;;4.87;;
12681;SDS011;6405;59.208;18.216;2023-04-15T01:35:01;7.20;;;4.40;;
12681;SDS011;6405;59.208;18.216;2023-04-15T01:37:27;13.13;;;5.40;;
12681;SDS011;6405;59.208;18.216;2023-04-15T01:39:53;11.27;;;5.03;;
12681;SDS011;6405;59.208;18.216;2023-04-15T01:42:20;12.03;;;4.57;;
12681;SDS011;6405;59.208;18.216;2023-04-15T01:44:46;14.63;;;5.20;;
12681;SDS011;6405;59.208;18.216;2023-04-15T01:47:12;12.27;;;4.83;;
12681;SDS011;6405;59.208;18.216;2023-04-15T01:49:38;10.93;;;4.30;;
12681;SDS011;6405;59.208;18.216;2023-04-15T01:52:04;15.37;;;4.33;;
12681;SDS011;6405;59.208;18.216;2023-04-15T01:54:29;14.07;;;4.90;;
12681;SDS011;6405;59.208;18.216;2023-04-15T01:56:55;13.43;;;4.13;;
12681;SDS011;6405;59.208;18.216;2023-04-15T01:59:21;14.27;;;4.33;;
12681;SDS011;6405;59.208;18.216;2023-04-15T02:01:46;11.13;;;4.53;;
12681;SDS011;6405;59.208;18.216;2023-04-15T02:04:12;8.70;;;4.43;;
12681;SDS011;6405;59.208;18.216;2023-04-15T02:06:41;12.37;;;4.47;;
12681;SDS011;6405;59.208;18.216;2023-04-15T02:09:08;11.20;;;4.53;;
12681;SDS011;6405;59.208;18.216;2023-04-15T02:11:34;6.17;;;3.90;;
12681;SDS011;6405;59.208;18.216;2023-04-15T02:14:01;12.60;;;4.80;;
12681;SDS011;6405;59.208;18.216;2023-04-15T02:16:28;7.87;;;4.23;;
12681;SDS011;6405;59.208;18.216;2023-04-15T02:18:54;11.23;;;4.57;;
12681;SDS011;6405;59.208;18.216;2023-04-15T02:21:20;8.93;;;3.90;;
12681;SDS011;6405;59.208;18.216;2023-04-15T02:23:46;13.17;;;4.60;;
12681;SDS011;6405;59.208;18.216;2023-04-15T02:26:12;11.37;;;4.13;;
12681;SDS011;6405;59.208;18.216;2023-04-15T02:28:38;11.70;;;4.03;;
12681;SDS011;6405;59.208;18.216;2023-04-15T02:31:04;14.50;;;3.47;;
12681;SDS011;6405;59.208;18.216;2023-04-15T02:33:30;8.20;;;3.73;;
12681;SDS011;6405;59.208;18.216;2023-04-15T02:35:56;7.53;;;3.73;;
12681;SDS011;6405;59.208;18.216;2023-04-15T02:38:23;10.67;;;4.00;;
12681;SDS011;6405;59.208;18.216;2023-04-15T02:40:49;6.70;;;3.83;;
12681;SDS011;6405;59.208;18.216;2023-04-15T02:43:15;9.67;;;3.93;;
12681;SDS011;6405;59.208;18.216;2023-04-15T02:45:42;8.93;;;4.20;;
12681;SDS011;6405;59.208;18.216;2023-04-15T02:48:08;10.53;;;4.23;;
12681;SDS011;6405;59.208;18.216;2023-04-15T02:50:33;9.53;;;4.33;;
12681;SDS011;6405;59.208;18.216;2023-04-15T02:52:59;11.03;;;4.07;;
12681;SDS011;6405;59.208;18.216;2023-04-15T02:55:26;8.63;;;3.97;;
12681;SDS011;6405;59.208;18.216;2023-04-15T02:57:52;7.37;;;3.87;;
12681;SDS011;6405;59.208;18.216;2023-04-15T03:00:18;8.70;;;3.47;;
12681;SDS011;6405;59.208;18.216;2023-04-15T03:03:01;9.50;;;4.23;;
12681;SDS011;6405;59.208;18.216;2023-04-15T03:05:27;10.53;;;4.63;;
12681;SDS011;6405;59.208;18.216;2023-04-15T03:07:53;10.57;;;3.87;;
12681;SDS011;6405;59.208;18.216;2023-04-15T03:10:19;8.53;;;3.73;;
12681;SDS011;6405;59.208;18.216;2023-04-15T03:12:45;8.20;;;4.03;;
12681;SDS011;6405;59.208;18.216;2023-04-15T03:15:10;8.63;;;3.97;;
12681;SDS011;6405;59.208;18.216;2023-04-15T03:17:36;8.53;;;3.83;;
12681;SDS011;6405;59.208;18.216;2023-04-15T03:20:02;9.13;;;4.33;;
12681;SDS011;6405;59.208;18.216;2023-04-15T03:22:31;12.13;;;3.80;;
12681;SDS011;6405;59.208;18.216;2023-04-15T03:24:57;10.97;;;4.77;;
12681;SDS011;6405;59.208;18.216;2023-04-15T03:27:23;7.83;;;3.47;;
12681;SDS011;6405;59.208;18.216;2023-04-15T03:29:49;8.87;;;3.80;;
12681;SDS011;6405;59.208;18.216;2023-04-15T03:32:15;8.40;;;3.93;;
12681;SDS011;6405;59.208;18.216;2023-04-15T03:34:41;8.90;;;3.13;;
12681;SDS011;6405;59.208;18.216;2023-04-15T03:37:07;7.87;;;3.90;;
12681;SDS011;6405;59.208;18.216;2023-04-15T03:39:33;7.67;;;3.70;;
12681;SDS011;6405;59.208;18.216;2023-04-15T03:41:58;8.90;;;3.50;;
12681;SDS011;6405;59.208;18.216;2023-04-15T03:44:25;10.20;;;3.67;;
12681;SDS011;6405;59.208;18.216;2023-04-15T03:46:51;7.60;;;3.50;;
12681;SDS011;6405;59.208;18.216;2023-04-15T03:49:17;9.33;;;3.73;;
12681;SDS011;6405;59.208;18.216;2023-04-15T03:51:44;7.20;;;4.00;;
12681;SDS011;6405;59.208;18.216;2023-04-15T03:54:10;7.20;;;3.70;;
12681;SDS011;6405;59.208;18.216;2023-04-15T03:56:36;5.50;;;4.03;;
12681;SDS011;6405;59.208;18.216;2023-04-15T03:59:02;7.97;;;3.77;;
12681;SDS011;6405;59.208;18.216;2023-04-15T04:01:28;7.93;;;3.20;;
12681;SDS011;6405;59.208;18.216;2023-04-15T04:03:54;7.47;;;3.43;;
12681;SDS011;6405;59.208;18.216;2023-04-15T04:06:20;8.43;;;3.63;;
12681;SDS011;6405;59.208;18.216;2023-04-15T04:08:45;6.73;;;3.60;;
12681;SDS011;6405;59.208;18.216;2023-04-15T04:11:11;6.43;;;3.73;;
12681;SDS011;6405;59.208;18.216;2023-04-15T04:13:37;8.97;;;3.40;;
12681;SDS011;6405;59.208;18.216;2023-04-15T04:16:03;8.40;;;3.30;;
12681;SDS011;6405;59.208;18.216;2023-04-15T04:18:30;8.83;;;4.07;;
12681;SDS011;6405;59.208;18.216;2023-04-15T04:20:56;7.47;;;3.90;;
12681;SDS011;6405;59.208;18.216;2023-04-15T04:23:22;7.60;;;4.10;;
12681;SDS011;6405;59.208;18.216;2023-04-15T04:25:47;7.97;;;3.60;;
12681;SDS011;6405;59.208;18.216;2023-04-15T04:28:13;7.43;;;3.87;;
12681;SDS011;6405;59.208;18.216;2023-04-15T04:30:39;7.10;;;4.17;;
12681;SDS011;6405;59.208;18.216;2023-04-15T04:33:05;9.90;;;4.30;;
12681;SDS011;6405;59.208;18.216;2023-04-15T04:35:31;6.90;;;4.07;;
12681;SDS011;6405;59.208;18.216;2023-04-15T04:37:59;9.63;;;4.17;;
12681;SDS011;6405;59.208;18.216;2023-04-15T04:40:25;8.10;;;3.23;;
12681;SDS011;6405;59.208;18.216;2023-04-15T04:42:51;12.30;;;3.93;;
12681;SDS011;6405;59.208;18.216;2023-04-15T04:45:17;9.53;;;3.83;;
12681;SDS011;6405;59.208;18.216;2023-04-15T04:47:44;7.93;;;4.23;;
12681;SDS011;6405;59.208;18.216;2023-04-15T04:50:10;8.93;;;3.97;;
12681;SDS011;6405;59.208;18.216;2023-04-15T04:52:36;9.70;;;4.13;;
12681;SDS011;6405;59.208;18.216;2023-04-15T04:55:02;7.40;;;3.67;;
12681;SDS011;6405;59.208;18.216;2023-04-15T04:57:28;8.57;;;4.20;;
12681;SDS011;6405;59.208;18.216;2023-04-15T04:59:53;10.47;;;4.37;;
12681;SDS011;6405;59.208;18.216;2023-04-15T05:02:19;6.10;;;3.90;;
12681;SDS011;6405;59.208;18.216;2023-04-15T05:04:45;11.97;;;4.10;;
12681;SDS011;6405;59.208;18.216;2023-04-15T05:07:10;9.57;;;3.87;;
12681;SDS011;6405;59.208;18.216;2023-04-15T05:09:36;5.60;;;3.87;;
12681;SDS011;6405;59.208;18.216;2023-04-15T05:12:05;5.53;;;3.60;;
12681;SDS011;6405;59.208;18.216;2023-04-15T05:14:31;9.93;;;4.03;;
12681;SDS011;6405;59.208;18.216;2023-04-15T05:16:57;12.00;;;4.70;;
12681;SDS011;6405;59.208;18.216;2023-04-15T05:19:23;7.70;;;4.53;;
12681;SDS011;6405;59.208;18.216;2023-04-15T05:21:48;6.60;;;3.30;;
12681;SDS011;6405;59.208;18.216;2023-04-15T05:24:14;6.33;;;4.00;;
12681;SDS011;6405;59.208;18.216;2023-04-15T05:26:40;5.03;;;3.20;;
12681;SDS011;6405;59.208;18.216;2023-04-15T05:29:06;6.70;;;4.03;;
12681;SDS011;6405;59.208;18.216;2023-04-15T05:31:32;10.50;;;4.03;;
12681;SDS011;6405;59.208;18.216;2023-04-15T05:33:57;10.43;;;4.30;;
12681;SDS011;6405;59.208;18.216;2023-04-15T05:36:23;6.97;;;3.73;;
12681;SDS011;6405;59.208;18.216;2023-04-15T05:38:48;10.47;;;3.93;;
12681;SDS011;6405;59.208;18.216;2023-04-15T05:41:14;6.00;;;3.50;;
12681;SDS011;6405;59.208;18.216;2023-04-15T05:43:40;7.23;;;3.83;;
12681;SDS011;6405;59.208;18.216;2023-04-15T05:46:06;9.70;;;4.03;;
12681;SDS011;6405;59.208;18.216;2023-04-15T05:48:32;7.13;;;3.60;;
12681;SDS011;6405;59.208;18.216;2023-04-15T05:50:58;7.17;;;3.73;;
12681;SDS011;6405;59.208;18.216;2023-04-15T05:53:24;9.10;;;3.57;;
12681;SDS011;6405;59.208;18.216;2023-04-15T05:55:50;7.93;;;3.83;;
12681;SDS011;6405;59.208;18.216;2023-04-15T05:58:16;10.87;;;3.57;;
12681;SDS011;6405;59.208;18.216;2023-04-15T06:00:42;6.97;;;3.57;;
12681;SDS011;6405;59.208;18.216;2023-04-15T06:03:09;7.03;;;3.67;;
12681;SDS011;6405;59.208;18.216;2023-04-15T06:05:35;6.67;;;3.40;;
12681;SDS011;6405;59.208;18.216;2023-04-15T06:08:01;10.07;;;3.87;;
12681;SDS011;6405;59.208;18.216;2023-04-15T06:10:27;7.00;;;3.97;;
12681;SDS011;6405;59.208;18.216;2023-04-15T06:12:52;7.70;;;3.67;;
12681;SDS011;6405;59.208;18.216;2023-04-15T06:15:18;7.33;;;3.57;;
12681;SDS011;6405;59.208;18.216;2023-04-15T06:17:44;7.90;;;3.73;;
12681;SDS011;6405;59.208;18.216;2023-04-15T06:20:09;7.87;;;3.63;;
12681;SDS011;6405;59.208;18.216;2023-04-15T06:22:36;10.40;;;4.03;;
12681;SDS011;6405;59.208;18.216;2023-04-15T06:25:03;4.53;;;3.00;;
12681;SDS011;6405;59.208;18.216;2023-04-15T06:27:29;6.80;;;3.70;;
12681;SDS011;6405;59.208;18.216;2023-04-15T06:29:55;8.00;;;3.43;;
12681;SDS011;6405;59.208;18.216;2023-04-15T06:32:20;7.80;;;3.60;;
12681;SDS011;6405;59.208;18.216;2023-04-15T06:34:46;8.13;;;3.80;;
12681;SDS011;6405;59.208;18.216;2023-04-15T06:37:11;8.13;;;3.03;;
12681;SDS011;6405;59.208;18.216;2023-04-15T06:39:40;5.93;;;3.20;;
12681;SDS011;6405;59.208;18.216;2023-04-15T06:42:07;4.47;;;3.00;;
12681;SDS011;6405;59.208;18.216;2023-04-15T06:44:33;7.40;;;3.70;;
12681;SDS011;6405;59.208;18.216;2023-04-15T06:46:59;5.73;;;3.27;;
12681;SDS011;6405;59.208;18.216;2023-04-15T06:49:25;7.20;;;3.50;;
12681;SDS011;6405;59.208;18.216;2023-04-15T06:51:50;6.50;;;3.30;;
12681;SDS011;6405;59.208;18.216;2023-04-15T06:54:16;6.20;;;3.63;;
12681;SDS011;6405;59.208;18.216;2023-04-15T06:56:42;7.53;;;3.20;;
12681;SDS011;6405;59.208;18.216;2023-04-15T06:59:08;7.07;;;3.40;;
12681;SDS011;6405;59.208;18.216;2023-04-15T07:01:34;6.80;;;3.23;;
12681;SDS011;6405;59.208;18.216;2023-04-15T07:03:59;4.77;;;3.03;;
12681;SDS011;6405;59.208;18.216;2023-04-15T07:06:25;5.67;;;3.00;;
12681;SDS011;6405;59.208;18.216;2023-04-15T07:08:51;6.87;;;3.40;;
12681;SDS011;6405;59.208;18.216;2023-04-15T07:11:18;5.30;;;2.93;;
12681;SDS011;6405;59.208;18.216;2023-04-15T07:13:45;4.17;;;2.80;;
12681;SDS011;6405;59.208;18.216;2023-04-15T07:16:11;4.73;;;3.10;;
12681;SDS011;6405;59.208;18.216;2023-04-15T07:18:37;5.70;;;2.80;;
12681;SDS011;6405;59.208;18.216;2023-04-15T07:21:02;6.57;;;3.20;;
12681;SDS011;6405;59.208;18.216;2023-04-15T07:23:28;5.07;;;2.90;;
12681;SDS011;6405;59.208;18.216;2023-04-15T07:25:54;5.90;;;3.47;;
12681;SDS011;6405;59.208;18.216;2023-04-15T07:28:21;5.83;;;3.43;;
12681;SDS011;6405;59.208;18.216;2023-04-15T07:30:47;4.73;;;3.03;;
12681;SDS011;6405;59.208;18.216;2023-04-15T07:33:13;4.33;;;2.13;;
12681;SDS011;6405;59.208;18.216;2023-04-15T07:35:38;4.57;;;2.93;;
12681;SDS011;6405;59.208;18.216;2023-04-15T07:38:04;5.17;;;2.70;;
12681;SDS011;6405;59.208;18.216;2023-04-15T07:40:29;5.50;;;2.60;;
12681;SDS011;6405;59.208;18.216;2023-04-15T07:42:55;6.40;;;3.00;;
12681;SDS011;6405;59.208;18.216;2023-04-15T07:45:22;6.43;;;2.80;;
12681;SDS011;6405;59.208;18.216;2023-04-15T07:47:48;4.93;;;3.10;;
12681;SDS011;6405;59.208;18.216;2023-04-15T07:50:14;7.00;;;3.53;;
12681;SDS011;6405;59.208;18.216;2023-04-15T07:52:41;4.50;;;2.80;;
12681;SDS011;6405;59.208;18.216;2023-04-15T07:55:08;5.67;;;3.20;;
12681;SDS011;6405;59.208;18.216;2023-04-15T07:57:34;5.87;;;2.87;;
12681;SDS011;6405;59.208;18.216;2023-04-15T08:00:01;5.93;;;2.60;;
12681;SDS011;6405;59.208;18.216;2023-04-15T08:02:30;5.83;;;2.80;;
12681;SDS011;6405;59.208;18.216;2023-04-15T08:04:55;9.70;;;3.10;;
12681;SDS011;6405;59.208;18.216;2023-04-15T08:07:22;4.67;;;2.33;;
12681;SDS011;6405;59.208;18.216;2023-04-15T08:09:47;5.30;;;2.60;;
12681;SDS011;6405;59.208;18.216;2023-04-15T08:12:13;3.83;;;2.70;;
12681;SDS011;6405;59.208;18.216;2023-04-15T08:14:39;5.97;;;2.93;;
12681;SDS011;6405;59.208;18.216;2023-04-15T08:17:05;3.10;;;2.27;;
12681;SDS011;6405;59.208;18.216;2023-04-15T08:19:31;5.33;;;3.00;;
12681;SDS011;6405;59.208;18.216;2023-04-15T08:21:57;4.90;;;2.90;;
12681;SDS011;6405;59.208;18.216;2023-04-15T08:24:23;7.70;;;3.00;;
12681;SDS011;6405;59.208;18.216;2023-04-15T08:26:50;7.77;;;3.67;;
12681;SDS011;6405;59.208;18.216;2023-04-15T08:29:16;6.20;;;3.07;;
12681;SDS011;6405;59.208;18.216;2023-04-15T08:31:43;7.43;;;3.47;;
12681;SDS011;6405;59.208;18.216;2023-04-15T08:34:12;9.87;;;3.67;;
12681;SDS011;6405;59.208;18.216;2023-04-15T08:36:39;6.43;;;3.50;;
12681;SDS011;6405;59.208;18.216;2023-04-15T08:39:04;6.80;;;2.87;;
12681;SDS011;6405;59.208;18.216;2023-04-15T08:41:44;7.07;;;3.77;;
12681;SDS011;6405;59.208;18.216;2023-04-15T08:44:20;8.50;;;3.40;;
12681;SDS011;6405;59.208;18.216;2023-04-15T08:46:48;5.63;;;3.17;;
12681;SDS011;6405;59.208;18.216;2023-04-15T08:49:15;5.27;;;2.90;;
12681;SDS011;6405;59.208;18.216;2023-04-15T08:51:43;5.97;;;3.27;;
12681;SDS011;6405;59.208;18.216;2023-04-15T08:54:09;4.80;;;3.17;;
12681;SDS011;6405;59.208;18.216;2023-04-15T08:56:35;5.00;;;2.90;;
12681;SDS011;6405;59.208;18.216;2023-04-15T08:59:02;6.30;;;2.83;;
12681;SDS011;6405;59.208;18.216;2023-04-15T09:01:29;7.30;;;3.20;;
12681;SDS011;6405;59.208;18.216;2023-04-15T09:03:56;6.87;;;3.13;;
12681;SDS011;6405;59.208;18.216;2023-04-15T09:06:23;6.90;;;3.00;;
12681;SDS011;6405;59.208;18.216;2023-04-15T09:08:49;6.97;;;3.40;;
12681;SDS011;6405;59.208;18.216;2023-04-15T09:11:16;4.67;;;3.00;;
12681;SDS011;6405;59.208;18.216;2023-04-15T09:13:42;4.07;;;2.90;;
12681;SDS011;6405;59.208;18.216;2023-04-15T09:16:08;4.97;;;3.43;;
12681;SDS011;6405;59.208;18.216;2023-04-15T09:18:34;6.37;;;3.37;;
12681;SDS011;6405;59.208;18.216;2023-04-15T09:21:08;7.47;;;3.43;;
12681;SDS011;6405;59.208;18.216;2023-04-15T09:23:36;4.70;;;3.40;;
12681;SDS011;6405;59.208;18.216;2023-04-15T09:26:03;4.90;;;3.47;;
12681;SDS011;6405;59.208;18.216;2023-04-15T09:28:30;5.87;;;3.40;;
12681;SDS011;6405;59.208;18.216;2023-04-15T09:30:56;5.97;;;3.60;;
12681;SDS011;6405;59.208;18.216;2023-04-15T09:33:26;6.03;;;3.80;;
12681;SDS011;6405;59.208;18.216;2023-04-15T09:38:54;6.70;;;3.80;;
12681;SDS011;6405;59.208;18.216;2023-04-15T09:41:21;6.53;;;3.87;;
12681;SDS011;6405;59.208;18.216;2023-04-15T09:43:47;6.60;;;3.80;;
12681;SDS011;6405;59.208;18.216;2023-04-15T09:46:13;5.70;;;3.80;;
12681;SDS011;6405;59.208;18.216;2023-04-15T09:48:38;3.93;;;2.73;;
12681;SDS011;6405;59.208;18.216;2023-04-15T09:51:04;4.57;;;3.20;;
12681;SDS011;6405;59.208;18.216;2023-04-15T09:53:33;5.73;;;3.37;;
12681;SDS011;6405;59.208;18.216;2023-04-15T09:56:01;6.83;;;3.40;;
12681;SDS011;6405;59.208;18.216;2023-04-15T09:58:30;5.03;;;3.50;;
12681;SDS011;6405;59.208;18.216;2023-04-15T10:00:58;6.27;;;3.73;;
12681;SDS011;6405;59.208;18.216;2023-04-15T10:03:29;7.17;;;3.43;;
12681;SDS011;6405;59.208;18.216;2023-04-15T10:05:57;5.43;;;3.90;;
12681;SDS011;6405;59.208;18.216;2023-04-15T10:08:27;4.63;;;3.60;;
12681;SDS011;6405;59.208;18.216;2023-04-15T10:10:59;4.37;;;3.37;;
12681;SDS011;6405;59.208;18.216;2023-04-15T10:13:28;6.53;;;3.77;;
12681;SDS011;6405;59.208;18.216;2023-04-15T10:16:00;5.00;;;3.47;;
12681;SDS011;6405;59.208;18.216;2023-04-15T10:18:35;6.30;;;3.37;;
12681;SDS011;6405;59.208;18.216;2023-04-15T10:21:05;6.57;;;3.53;;
12681;SDS011;6405;59.208;18.216;2023-04-15T10:23:32;7.57;;;3.83;;
12681;SDS011;6405;59.208;18.216;2023-04-15T10:25:58;6.10;;;2.80;;
12681;SDS011;6405;59.208;18.216;2023-04-15T10:28:24;5.03;;;3.03;;
12681;SDS011;6405;59.208;18.216;2023-04-15T10:30:51;5.23;;;3.30;;
12681;SDS011;6405;59.208;18.216;2023-04-15T10:33:18;6.17;;;3.43;;
12681;SDS011;6405;59.208;18.216;2023-04-15T10:35:47;5.13;;;3.40;;
12681;SDS011;6405;59.208;18.216;2023-04-15T10:38:30;6.30;;;3.47;;
12681;SDS011;6405;59.208;18.216;2023-04-15T10:41:26;4.77;;;3.20;;
12681;SDS011;6405;59.208;18.216;2023-04-15T10:46:33;6.67;;;3.83;;
12681;SDS011;6405;59.208;18.216;2023-04-15T10:49:23;7.27;;;4.27;;
12681;SDS011;6405;59.208;18.216;2023-04-15T10:51:51;6.10;;;3.47;;
12681;SDS011;6405;59.208;18.216;2023-04-15T10:57:36;7.20;;;4.03;;
12681;SDS011;6405;59.208;18.216;2023-04-15T10:59:59;9.17;;;5.17;;
12681;SDS011;6405;59.208;18.216;2023-04-15T11:05:18;10.13;;;4.87;;
12681;SDS011;6405;59.208;18.216;2023-04-15T11:12:53;5.60;;;4.10;;
12681;SDS011;6405;59.208;18.216;2023-04-15T11:17:58;7.03;;;3.10;;
12681;SDS011;6405;59.208;18.216;2023-04-15T11:20:34;8.07;;;3.50;;
12681;SDS011;6405;59.208;18.216;2023-04-15T11:23:00;6.50;;;3.63;;
12681;SDS011;6405;59.208;18.216;2023-04-15T11:25:27;6.53;;;3.73;;
12681;SDS011;6405;59.208;18.216;2023-04-15T11:27:57;7.93;;;3.63;;
12681;SDS011;6405;59.208;18.216;2023-04-15T11:30:27;7.23;;;3.47;;
12681;SDS011;6405;59.208;18.216;2023-04-15T11:32:56;6.57;;;3.53;;
12681;SDS011;6405;59.208;18.216;2023-04-15T11:35:27;5.50;;;3.57;;
12681;SDS011;6405;59.208;18.216;2023-04-15T11:37:53;6.23;;;3.60;;
12681;SDS011;6405;59.208;18.216;2023-04-15T11:40:23;11.37;;;4.17;;
12681;SDS011;6405;59.208;18.216;2023-04-15T11:43:10;6.93;;;3.60;;
12681;SDS011;6405;59.208;18.216;2023-04-15T11:45:46;5.93;;;3.50;;
12681;SDS011;6405;59.208;18.216;2023-04-15T11:48:12;7.00;;;3.87;;
12681;SDS011;6405;59.208;18.216;2023-04-15T11:50:38;5.00;;;3.63;;
12681;SDS011;6405;59.208;18.216;2023-04-15T11:53:05;7.30;;;3.77;;
12681;SDS011;6405;59.208;18.216;2023-04-15T11:55:41;5.30;;;3.47;;
12681;SDS011;6405;59.208;18.216;2023-04-15T12:00:46;5.17;;;3.63;;
12681;SDS011;6405;59.208;18.216;2023-04-15T12:03:23;8.20;;;3.77;;
12681;SDS011;6405;59.208;18.216;2023-04-15T12:11:17;5.90;;;3.37;;
12681;SDS011;6405;59.208;18.216;2023-04-15T12:16:47;5.13;;;3.27;;
12681;SDS011;6405;59.208;18.216;2023-04-15T12:19:15;6.90;;;4.40;;
12681;SDS011;6405;59.208;18.216;2023-04-15T12:21:58;5.57;;;3.80;;
12681;SDS011;6405;59.208;18.216;2023-04-15T12:24:26;5.43;;;3.83;;
12681;SDS011;6405;59.208;18.216;2023-04-15T12:26:53;9.60;;;4.40;;
12681;SDS011;6405;59.208;18.216;2023-04-15T12:29:25;8.23;;;3.97;;
12681;SDS011;6405;59.208;18.216;2023-04-15T12:31:56;5.60;;;3.53;;
12681;SDS011;6405;59.208;18.216;2023-04-15T12:36:56;6.30;;;3.47;;
12681;SDS011;6405;59.208;18.216;2023-04-15T12:39:26;4.37;;;3.33;;
12681;SDS011;6405;59.208;18.216;2023-04-15T12:41:53;6.70;;;3.47;;
12681;SDS011;6405;59.208;18.216;2023-04-15T12:44:21;6.17;;;3.57;;
12681;SDS011;6405;59.208;18.216;2023-04-15T12:46:48;5.33;;;3.73;;
12681;SDS011;6405;59.208;18.216;2023-04-15T12:49:14;4.60;;;3.43;;
12681;SDS011;6405;59.208;18.216;2023-04-15T12:51:40;6.47;;;3.87;;
12681;SDS011;6405;59.208;18.216;2023-04-15T12:54:06;8.33;;;3.83;;
12681;SDS011;6405;59.208;18.216;2023-04-15T12:56:32;5.63;;;3.50;;
12681;SDS011;6405;59.208;18.216;2023-04-15T12:58:58;6.83;;;3.60;;
12681;SDS011;6405;59.208;18.216;2023-04-15T13:01:23;5.10;;;3.33;;
12681;SDS011;6405;59.208;18.216;2023-04-15T13:03:49;5.57;;;3.53;;
12681;SDS011;6405;59.208;18.216;2023-04-15T13:06:15;5.40;;;3.27;;
12681;SDS011;6405;59.208;18.216;2023-04-15T13:08:41;5.77;;;3.47;;
12681;SDS011;6405;59.208;18.216;2023-04-15T13:11:07;5.33;;;3.13;;
12681;SDS011;6405;59.208;18.216;2023-04-15T13:13:32;6.77;;;3.63;;
12681;SDS011;6405;59.208;18.216;2023-04-15T13:15:58;3.17;;;2.60;;
12681;SDS011;6405;59.208;18.216;2023-04-15T13:18:24;4.63;;;2.83;;
12681;SDS011;6405;59.208;18.216;2023-04-15T13:20:50;14.33;;;3.77;;
12681;SDS011;6405;59.208;18.216;2023-04-15T13:23:16;5.27;;;3.40;;
12681;SDS011;6405;59.208;18.216;2023-04-15T13:25:42;5.53;;;3.77;;
12681;SDS011;6405;59.208;18.216;2023-04-15T13:28:09;4.07;;;3.13;;
12681;SDS011;6405;59.208;18.216;2023-04-15T13:30:36;5.07;;;2.83;;
12681;SDS011;6405;59.208;18.216;2023-04-15T13:33:02;5.50;;;3.50;;
12681;SDS011;6405;59.208;18.216;2023-04-15T13:35:28;5.37;;;3.30;;
12681;SDS011;6405;59.208;18.216;2023-04-15T13:37:54;5.57;;;3.40;;
12681;SDS011;6405;59.208;18.216;2023-04-15T13:40:20;5.87;;;2.70;;
12681;SDS011;6405;59.208;18.216;2023-04-15T13:42:46;4.90;;;3.03;;
12681;SDS011;6405;59.208;18.216;2023-04-15T13:45:12;4.30;;;2.93;;
12681;SDS011;6405;59.208;18.216;2023-04-15T13:47:38;4.30;;;3.30;;
12681;SDS011;6405;59.208;18.216;2023-04-15T13:50:04;5.13;;;2.80;;
12681;SDS011;6405;59.208;18.216;2023-04-15T13:52:30;9.50;;;4.57;;
12681;SDS011;6405;59.208;18.216;2023-04-15T13:54:56;8.63;;;5.50;;
12681;SDS011;6405;59.208;18.216;2023-04-15T13:57:22;6.27;;;3.13;;
12681;SDS011;6405;59.208;18.216;2023-04-15T13:59:47;5.77;;;3.30;;
12681;SDS011;6405;59.208;18.216;2023-04-15T14:02:13;8.33;;;3.47;;
12681;SDS011;6405;59.208;18.216;2023-04-15T14:04:38;5.37;;;3.63;;
12681;SDS011;6405;59.208;18.216;2023-04-15T14:07:04;6.87;;;3.30;;
12681;SDS011;6405;59.208;18.216;2023-04-15T14:09:30;5.07;;;2.97;;
12681;SDS011;6405;59.208;18.216;2023-04-15T14:11:56;4.80;;;3.13;;
12681;SDS011;6405;59.208;18.216;2023-04-15T14:14:23;6.67;;;3.37;;
12681;SDS011;6405;59.208;18.216;2023-04-15T14:16:49;8.93;;;3.47;;
12681;SDS011;6405;59.208;18.216;2023-04-15T14:19:15;5.63;;;3.50;;
12681;SDS011;6405;59.208;18.216;2023-04-15T14:21:41;6.33;;;3.83;;
12681;SDS011;6405;59.208;18.216;2023-04-15T14:24:06;4.07;;;3.40;;
12681;SDS011;6405;59.208;18.216;2023-04-15T14:26:32;6.00;;;3.13;;
12681;SDS011;6405;59.208;18.216;2023-04-15T14:28:58;6.77;;;3.43;;
12681;SDS011;6405;59.208;18.216;2023-04-15T14:31:24;6.93;;;3.87;;
12681;SDS011;6405;59.208;18.216;2023-04-15T14:33:50;6.13;;;4.10;;
12681;SDS011;6405;59.208;18.216;2023-04-15T14:36:15;7.70;;;4.10;;
12681;SDS011;6405;59.208;18.216;2023-04-15T14:38:41;10.63;;;5.70;;
12681;SDS011;6405;59.208;18.216;2023-04-15T14:41:07;8.10;;;4.33;;
12681;SDS011;6405;59.208;18.216;2023-04-15T14:43:34;8.50;;;4.13;;
12681;SDS011;6405;59.208;18.216;2023-04-15T14:46:00;6.60;;;4.03;;
12681;SDS011;6405;59.208;18.216;2023-04-15T14:48:26;5.60;;;3.63;;
12681;SDS011;6405;59.208;18.216;2023-04-15T14:50:52;7.50;;;3.90;;
12681;SDS011;6405;59.208;18.216;2023-04-15T14:53:18;7.90;;;3.73;;
12681;SDS011;6405;59.208;18.216;2023-04-15T14:55:44;4.80;;;3.07;;
12681;SDS011;6405;59.208;18.216;2023-04-15T14:58:10;8.40;;;3.80;;
12681;SDS011;6405;59.208;18.216;2023-04-15T15:00:37;8.47;;;3.77;;
12681;SDS011;6405;59.208;18.216;2023-04-15T15:03:06;7.80;;;3.60;;
12681;SDS011;6405;59.208;18.216;2023-04-15T15:05:38;9.53;;;3.40;;
12681;SDS011;6405;59.208;18.216;2023-04-15T15:08:08;5.63;;;3.23;;
12681;SDS011;6405;59.208;18.216;2023-04-15T15:10:34;9.00;;;3.43;;
12681;SDS011;6405;59.208;18.216;2023-04-15T15:13:04;7.57;;;3.40;;
12681;SDS011;6405;59.208;18.216;2023-04-15T15:15:33;9.00;;;4.47;;
12681;SDS011;6405;59.208;18.216;2023-04-15T15:17:59;7.17;;;3.43;;